sensor_id;sensor_type;location;lat;lon;timestamp;P1;durP1;ratioP1;P2;durP2;ratioP2
31746;SDS011;18319;48.974;8.462;2024-03-22T00:01:46;4.43;;;4.03;;
31746;SDS011;18319;48.974;8.462;2024-03-22T00:04:12;5.13;;;4.22;;
31746;SDS011;18319;48.974;8.462;2024-03-22T00:06:39;3.88;;;3.58;;
31746;SDS011;18319;48.974;8.462;2024-03-22T00:09:06;3.60;;;3.40;;
31746;SDS011;18319;48.974;8.462;2024-03-22T00:11:33;4.68;;;4.18;;
31746;SDS011;18319;48.974;8.462;2024-03-22T00:13:58;3.83;;;3.58;;
31746;SDS011;18319;48.974;8.462;2024-03-22T00:16:27;4.38;;;4.05;;
31746;SDS011;18319;48.974;8.462;2024-03-22T00:18:53;4.85;;;3.58;;
31746;SDS011;18319;48.974;8.462;2024-03-22T00:21:20;3.50;;;3.25;;
31746;SDS011;18319;48.974;8.462;2024-03-22T00:23:46;4.78;;;4.38;;
31746;SDS011;18319;48.974;8.462;2024-03-22T00:26:13;6.05;;;3.95;;
31746;SDS011;18319;48.974;8.462;2024-03-22T00:28:39;4.45;;;4.05;;
31746;SDS011;18319;48.974;8.462;2024-03-22T00:31:06;4.47;;;3.72;;
31746;SDS011;18319;48.974;8.462;2024-03-22T00:33:33;5.30;;;3.70;;
31746;SDS011;18319;48.974;8.462;2024-03-22T00:36:00;4.30;;;3.90;;
31746;SDS011;18319;48.974;8.462;2024-03-22T00:38:26;5.57;;;4.03;;
31746;SDS011;18319;48.974;8.462;2024-03-22T00:40:53;4.40;;;3.47;;
31746;SDS011;18319;48.974;8.462;2024-03-22T00:43:19;3.40;;;3.20;;
31746;SDS011;18319;48.974;8.462;2024-03-22T00:45:45;4.07;;;3.78;;
31746;SDS011;18319;48.974;8.462;2024-03-22T00:48:11;4.25;;;3.95;;
31746;SDS011;18319;48.974;8.462;2024-03-22T00:50:39;3.70;;;3.40;;
31746;SDS011;18319;48.974;8.462;2024-03-22T00:53:05;4.82;;;3.40;;
31746;SDS011;18319;48.974;8.462;2024-03-22T00:55:33;3.83;;;3.53;;
31746;SDS011;18319;48.974;8.462;2024-03-22T00:57:59;4.05;;;3.70;;
31746;SDS011;18319;48.974;8.462;2024-03-22T01:00:25;3.33;;;3.03;;
31746;SDS011;18319;48.974;8.462;2024-03-22T01:02:51;5.22;;;3.60;;
31746;SDS011;18319;48.974;8.462;2024-03-22T01:05:18;4.18;;;3.42;;
31746;SDS011;18319;48.974;8.462;2024-03-22T01:07:45;3.55;;;3.30;;
31746;SDS011;18319;48.974;8.462;2024-03-22T01:10:12;3.45;;;3.17;;
31746;SDS011;18319;48.974;8.462;2024-03-22T01:12:38;4.57;;;3.53;;
31746;SDS011;18319;48.974;8.462;2024-03-22T01:15:05;4.70;;;3.55;;
31746;SDS011;18319;48.974;8.462;2024-03-22T01:17:32;4.53;;;4.13;;
31746;SDS011;18319;48.974;8.462;2024-03-22T01:19:58;6.50;;;3.60;;
31746;SDS011;18319;48.974;8.462;2024-03-22T01:22:24;3.72;;;3.15;;
31746;SDS011;18319;48.974;8.462;2024-03-22T01:24:52;4.00;;;3.70;;
31746;SDS011;18319;48.974;8.462;2024-03-22T01:27:18;3.55;;;3.17;;
31746;SDS011;18319;48.974;8.462;2024-03-22T01:29:45;4.60;;;3.55;;
31746;SDS011;18319;48.974;8.462;2024-03-22T01:32:12;3.90;;;3.58;;
31746;SDS011;18319;48.974;8.462;2024-03-22T01:34:39;3.80;;;3.53;;
31746;SDS011;18319;48.974;8.462;2024-03-22T01:37:05;3.88;;;3.42;;
31746;SDS011;18319;48.974;8.462;2024-03-22T01:39:32;4.00;;;3.55;;
31746;SDS011;18319;48.974;8.462;2024-03-22T01:41:59;5.50;;;3.55;;
31746;SDS011;18319;48.974;8.462;2024-03-22T01:44:27;3.70;;;3.50;;
31746;SDS011;18319;48.974;8.462;2024-03-22T01:46:53;4.10;;;3.70;;
31746;SDS011;18319;48.974;8.462;2024-03-22T01:49:20;3.55;;;3.25;;
31746;SDS011;18319;48.974;8.462;2024-03-22T01:51:47;6.43;;;4.18;;
31746;SDS011;18319;48.974;8.462;2024-03-22T01:54:14;4.30;;;3.90;;
31746;SDS011;18319;48.974;8.462;2024-03-22T01:56:41;4.68;;;3.20;;
31746;SDS011;18319;48.974;8.462;2024-03-22T01:59:10;4.00;;;3.67;;
31746;SDS011;18319;48.974;8.462;2024-03-22T02:01:35;3.85;;;3.55;;
31746;SDS011;18319;48.974;8.462;2024-03-22T02:04:02;3.85;;;3.53;;
31746;SDS011;18319;48.974;8.462;2024-03-22T02:06:28;4.13;;;3.40;;
31746;SDS011;18319;48.974;8.462;2024-03-22T02:08:56;3.55;;;3.28;;
31746;SDS011;18319;48.974;8.462;2024-03-22T02:11:22;3.80;;;3.50;;
31746;SDS011;18319;48.974;8.462;2024-03-22T02:13:49;3.25;;;3.05;;
31746;SDS011;18319;48.974;8.462;2024-03-22T02:16:16;4.60;;;3.75;;
31746;SDS011;18319;48.974;8.462;2024-03-22T02:18:43;4.82;;;4.43;;
31746;SDS011;18319;48.974;8.462;2024-03-22T02:21:09;6.03;;;4.38;;
31746;SDS011;18319;48.974;8.462;2024-03-22T02:23:38;4.65;;;4.25;;
31746;SDS011;18319;48.974;8.462;2024-03-22T02:26:05;4.55;;;4.15;;
31746;SDS011;18319;48.974;8.462;2024-03-22T02:28:33;4.90;;;4.38;;
31746;SDS011;18319;48.974;8.462;2024-03-22T02:31:00;5.47;;;4.63;;
31746;SDS011;18319;48.974;8.462;2024-03-22T02:33:28;5.60;;;4.65;;
31746;SDS011;18319;48.974;8.462;2024-03-22T02:35:53;4.93;;;4.50;;
31746;SDS011;18319;48.974;8.462;2024-03-22T02:38:21;5.25;;;4.20;;
31746;SDS011;18319;48.974;8.462;2024-03-22T02:40:48;6.70;;;3.95;;
31746;SDS011;18319;48.974;8.462;2024-03-22T02:43:17;3.88;;;3.60;;
31746;SDS011;18319;48.974;8.462;2024-03-22T02:45:44;4.72;;;3.72;;
31746;SDS011;18319;48.974;8.462;2024-03-22T02:48:10;7.38;;;3.42;;
31746;SDS011;18319;48.974;8.462;2024-03-22T02:50:36;4.25;;;3.83;;
31746;SDS011;18319;48.974;8.462;2024-03-22T02:53:04;3.50;;;3.20;;
31746;SDS011;18319;48.974;8.462;2024-03-22T02:55:30;4.20;;;3.90;;
31746;SDS011;18319;48.974;8.462;2024-03-22T02:58:03;6.63;;;3.53;;
31746;SDS011;18319;48.974;8.462;2024-03-22T03:00:29;3.70;;;3.40;;
31746;SDS011;18319;48.974;8.462;2024-03-22T03:02:56;3.70;;;3.40;;
31746;SDS011;18319;48.974;8.462;2024-03-22T03:05:21;3.88;;;3.33;;
31746;SDS011;18319;48.974;8.462;2024-03-22T03:07:48;3.50;;;3.30;;
31746;SDS011;18319;48.974;8.462;2024-03-22T03:10:15;4.05;;;3.75;;
31746;SDS011;18319;48.974;8.462;2024-03-22T03:12:42;3.95;;;3.65;;
31746;SDS011;18319;48.974;8.462;2024-03-22T03:15:09;3.92;;;3.40;;
31746;SDS011;18319;48.974;8.462;2024-03-22T03:17:36;3.33;;;3.13;;
31746;SDS011;18319;48.974;8.462;2024-03-22T03:20:03;5.30;;;4.07;;
31746;SDS011;18319;48.974;8.462;2024-03-22T03:22:32;5.38;;;3.75;;
31746;SDS011;18319;48.974;8.462;2024-03-22T03:24:59;4.00;;;3.65;;
31746;SDS011;18319;48.974;8.462;2024-03-22T03:27:25;6.88;;;4.55;;
31746;SDS011;18319;48.974;8.462;2024-03-22T03:29:52;4.30;;;4.00;;
31746;SDS011;18319;48.974;8.462;2024-03-22T03:32:19;3.80;;;3.47;;
31746;SDS011;18319;48.974;8.462;2024-03-22T03:34:46;4.00;;;3.67;;
31746;SDS011;18319;48.974;8.462;2024-03-22T03:37:12;4.75;;;4.13;;
31746;SDS011;18319;48.974;8.462;2024-03-22T03:39:40;4.20;;;3.90;;
31746;SDS011;18319;48.974;8.462;2024-03-22T03:42:06;3.90;;;3.60;;
31746;SDS011;18319;48.974;8.462;2024-03-22T03:44:33;4.30;;;3.90;;
31746;SDS011;18319;48.974;8.462;2024-03-22T03:46:59;3.80;;;3.50;;
31746;SDS011;18319;48.974;8.462;2024-03-22T03:49:27;4.75;;;3.90;;
31746;SDS011;18319;48.974;8.462;2024-03-22T03:51:53;4.35;;;4.05;;
31746;SDS011;18319;48.974;8.462;2024-03-22T03:54:20;3.88;;;3.58;;
31746;SDS011;18319;48.974;8.462;2024-03-22T03:56:46;4.40;;;3.85;;
31746;SDS011;18319;48.974;8.462;2024-03-22T03:59:13;3.55;;;3.28;;
31746;SDS011;18319;48.974;8.462;2024-03-22T04:01:38;3.92;;;3.53;;
31746;SDS011;18319;48.974;8.462;2024-03-22T04:04:05;5.13;;;3.50;;
31746;SDS011;18319;48.974;8.462;2024-03-22T04:06:32;4.63;;;4.03;;
31746;SDS011;18319;48.974;8.462;2024-03-22T04:08:59;4.32;;;3.78;;
31746;SDS011;18319;48.974;8.462;2024-03-22T04:11:25;4.50;;;3.70;;
31746;SDS011;18319;48.974;8.462;2024-03-22T04:13:52;4.80;;;4.50;;
31746;SDS011;18319;48.974;8.462;2024-03-22T04:16:18;5.35;;;3.38;;
31746;SDS011;18319;48.974;8.462;2024-03-22T04:18:45;4.18;;;3.80;;
31746;SDS011;18319;48.974;8.462;2024-03-22T04:21:10;5.63;;;3.63;;
31746;SDS011;18319;48.974;8.462;2024-03-22T04:23:39;3.90;;;3.60;;
31746;SDS011;18319;48.974;8.462;2024-03-22T04:26:04;4.00;;;3.70;;
31746;SDS011;18319;48.974;8.462;2024-03-22T04:28:31;3.60;;;3.33;;
31746;SDS011;18319;48.974;8.462;2024-03-22T04:30:58;6.22;;;3.92;;
31746;SDS011;18319;48.974;8.462;2024-03-22T04:33:25;4.75;;;4.30;;
31746;SDS011;18319;48.974;8.462;2024-03-22T04:35:51;6.03;;;4.13;;
31746;SDS011;18319;48.974;8.462;2024-03-22T04:38:18;4.22;;;3.88;;
31746;SDS011;18319;48.974;8.462;2024-03-22T04:40:47;4.88;;;4.28;;
31746;SDS011;18319;48.974;8.462;2024-03-22T04:43:14;4.05;;;3.75;;
31746;SDS011;18319;48.974;8.462;2024-03-22T04:45:41;4.65;;;4.25;;
31746;SDS011;18319;48.974;8.462;2024-03-22T04:48:08;6.45;;;4.88;;
31746;SDS011;18319;48.974;8.462;2024-03-22T04:50:34;5.40;;;4.25;;
31746;SDS011;18319;48.974;8.462;2024-03-22T04:53:01;4.70;;;4.25;;
31746;SDS011;18319;48.974;8.462;2024-03-22T04:55:27;5.00;;;4.60;;
31746;SDS011;18319;48.974;8.462;2024-03-22T04:57:55;7.93;;;4.38;;
31746;SDS011;18319;48.974;8.462;2024-03-22T05:00:21;4.85;;;4.35;;
31746;SDS011;18319;48.974;8.462;2024-03-22T05:02:50;5.05;;;4.40;;
31746;SDS011;18319;48.974;8.462;2024-03-22T05:05:15;6.70;;;4.65;;
31746;SDS011;18319;48.974;8.462;2024-03-22T05:07:42;5.28;;;4.53;;
31746;SDS011;18319;48.974;8.462;2024-03-22T05:10:08;5.63;;;5.05;;
31746;SDS011;18319;48.974;8.462;2024-03-22T05:12:36;7.05;;;5.68;;
31746;SDS011;18319;48.974;8.462;2024-03-22T05:15:03;8.80;;;5.60;;
31746;SDS011;18319;48.974;8.462;2024-03-22T05:17:31;6.07;;;4.97;;
31746;SDS011;18319;48.974;8.462;2024-03-22T05:19:58;6.75;;;5.00;;
31746;SDS011;18319;48.974;8.462;2024-03-22T05:22:25;6.63;;;5.32;;
31746;SDS011;18319;48.974;8.462;2024-03-22T05:24:50;5.90;;;4.95;;
31746;SDS011;18319;48.974;8.462;2024-03-22T05:27:17;5.47;;;4.50;;
31746;SDS011;18319;48.974;8.462;2024-03-22T05:29:43;5.05;;;4.50;;
31746;SDS011;18319;48.974;8.462;2024-03-22T05:32:11;4.85;;;4.38;;
31746;SDS011;18319;48.974;8.462;2024-03-22T05:34:37;5.30;;;4.82;;
31746;SDS011;18319;48.974;8.462;2024-03-22T05:37:04;5.57;;;4.78;;
31746;SDS011;18319;48.974;8.462;2024-03-22T05:39:30;7.95;;;4.70;;
31746;SDS011;18319;48.974;8.462;2024-03-22T05:41:56;5.00;;;4.07;;
31746;SDS011;18319;48.974;8.462;2024-03-22T05:44:22;5.70;;;4.65;;
31746;SDS011;18319;48.974;8.462;2024-03-22T05:46:49;5.38;;;4.65;;
31746;SDS011;18319;48.974;8.462;2024-03-22T05:49:16;5.30;;;4.13;;
31746;SDS011;18319;48.974;8.462;2024-03-22T05:51:43;5.50;;;5.10;;
31746;SDS011;18319;48.974;8.462;2024-03-22T05:54:09;4.57;;;4.20;;
31746;SDS011;18319;48.974;8.462;2024-03-22T05:56:36;5.22;;;4.72;;
31746;SDS011;18319;48.974;8.462;2024-03-22T05:59:02;5.35;;;4.93;;
31746;SDS011;18319;48.974;8.462;2024-03-22T06:01:29;5.40;;;4.80;;
31746;SDS011;18319;48.974;8.462;2024-03-22T06:03:55;6.53;;;5.20;;
31746;SDS011;18319;48.974;8.462;2024-03-22T06:06:23;6.95;;;4.78;;
31746;SDS011;18319;48.974;8.462;2024-03-22T06:08:50;6.40;;;4.38;;
31746;SDS011;18319;48.974;8.462;2024-03-22T06:11:19;6.30;;;4.93;;
31746;SDS011;18319;48.974;8.462;2024-03-22T06:13:46;7.20;;;4.97;;
31746;SDS011;18319;48.974;8.462;2024-03-22T06:16:13;5.75;;;5.10;;
31746;SDS011;18319;48.974;8.462;2024-03-22T06:18:39;6.00;;;5.32;;
31746;SDS011;18319;48.974;8.462;2024-03-22T06:21:06;6.18;;;5.35;;
31746;SDS011;18319;48.974;8.462;2024-03-22T06:23:33;5.53;;;4.80;;
31746;SDS011;18319;48.974;8.462;2024-03-22T06:26:00;4.78;;;4.43;;
31746;SDS011;18319;48.974;8.462;2024-03-22T06:28:27;5.93;;;4.93;;
31746;SDS011;18319;48.974;8.462;2024-03-22T06:30:55;5.70;;;5.20;;
31746;SDS011;18319;48.974;8.462;2024-03-22T06:33:21;5.15;;;4.65;;
31746;SDS011;18319;48.974;8.462;2024-03-22T06:35:48;7.30;;;5.32;;
31746;SDS011;18319;48.974;8.462;2024-03-22T06:38:14;5.93;;;4.57;;
31746;SDS011;18319;48.974;8.462;2024-03-22T06:40:42;5.28;;;4.78;;
31746;SDS011;18319;48.974;8.462;2024-03-22T06:43:08;8.55;;;5.53;;
31746;SDS011;18319;48.974;8.462;2024-03-22T06:45:35;6.18;;;4.95;;
31746;SDS011;18319;48.974;8.462;2024-03-22T06:48:01;5.45;;;5.05;;
31746;SDS011;18319;48.974;8.462;2024-03-22T06:50:28;4.32;;;3.97;;
31746;SDS011;18319;48.974;8.462;2024-03-22T06:52:54;4.13;;;3.80;;
31746;SDS011;18319;48.974;8.462;2024-03-22T06:55:20;4.43;;;3.92;;
31746;SDS011;18319;48.974;8.462;2024-03-22T06:57:48;7.43;;;3.88;;
31746;SDS011;18319;48.974;8.462;2024-03-22T07:00:16;5.93;;;4.20;;
31746;SDS011;18319;48.974;8.462;2024-03-22T07:02:42;6.82;;;4.35;;
31746;SDS011;18319;48.974;8.462;2024-03-22T07:05:10;4.75;;;3.45;;
31746;SDS011;18319;48.974;8.462;2024-03-22T07:07:36;4.57;;;4.18;;
31746;SDS011;18319;48.974;8.462;2024-03-22T07:10:03;3.85;;;3.42;;
31746;SDS011;18319;48.974;8.462;2024-03-22T07:12:30;4.78;;;3.90;;
31746;SDS011;18319;48.974;8.462;2024-03-22T07:14:59;4.68;;;4.28;;
31746;SDS011;18319;48.974;8.462;2024-03-22T07:17:25;3.80;;;3.50;;
31746;SDS011;18319;48.974;8.462;2024-03-22T07:19:51;4.90;;;4.35;;
31746;SDS011;18319;48.974;8.462;2024-03-22T07:22:17;5.05;;;4.68;;
31746;SDS011;18319;48.974;8.462;2024-03-22T07:24:45;5.30;;;4.13;;
31746;SDS011;18319;48.974;8.462;2024-03-22T07:27:11;4.47;;;4.07;;
31746;SDS011;18319;48.974;8.462;2024-03-22T07:29:39;4.15;;;3.85;;
31746;SDS011;18319;48.974;8.462;2024-03-22T07:32:06;4.38;;;3.55;;
31746;SDS011;18319;48.974;8.462;2024-03-22T07:34:33;4.18;;;3.65;;
31746;SDS011;18319;48.974;8.462;2024-03-22T07:36:59;5.80;;;3.25;;
31746;SDS011;18319;48.974;8.462;2024-03-22T07:39:25;4.22;;;3.25;;
31746;SDS011;18319;48.974;8.462;2024-03-22T07:41:51;4.03;;;3.72;;
31746;SDS011;18319;48.974;8.462;2024-03-22T07:44:18;3.65;;;3.35;;
31746;SDS011;18319;48.974;8.462;2024-03-22T07:46:44;4.18;;;3.88;;
31746;SDS011;18319;48.974;8.462;2024-03-22T07:49:13;4.22;;;3.80;;
31746;SDS011;18319;48.974;8.462;2024-03-22T07:51:39;3.50;;;3.30;;
31746;SDS011;18319;48.974;8.462;2024-03-22T07:54:06;4.47;;;3.55;;
31746;SDS011;18319;48.974;8.462;2024-03-22T07:56:31;5.97;;;4.45;;
31746;SDS011;18319;48.974;8.462;2024-03-22T07:58:58;4.18;;;3.78;;
31746;SDS011;18319;48.974;8.462;2024-03-22T08:01:24;5.25;;;3.42;;
31746;SDS011;18319;48.974;8.462;2024-03-22T08:03:51;3.63;;;3.08;;
31746;SDS011;18319;48.974;8.462;2024-03-22T08:06:19;5.00;;;3.42;;
31746;SDS011;18319;48.974;8.462;2024-03-22T08:08:46;4.47;;;3.83;;
31746;SDS011;18319;48.974;8.462;2024-03-22T08:11:12;4.13;;;3.72;;
31746;SDS011;18319;48.974;8.462;2024-03-22T08:13:39;4.22;;;3.92;;
31746;SDS011;18319;48.974;8.462;2024-03-22T08:16:05;3.85;;;3.55;;
31746;SDS011;18319;48.974;8.462;2024-03-22T08:18:32;5.53;;;4.20;;
31746;SDS011;18319;48.974;8.462;2024-03-22T08:20:58;5.07;;;3.67;;
31746;SDS011;18319;48.974;8.462;2024-03-22T08:23:26;4.72;;;4.00;;
31746;SDS011;18319;48.974;8.462;2024-03-22T08:25:52;4.72;;;4.05;;
31746;SDS011;18319;48.974;8.462;2024-03-22T08:28:19;5.55;;;4.57;;
31746;SDS011;18319;48.974;8.462;2024-03-22T08:30:45;6.30;;;4.60;;
31746;SDS011;18319;48.974;8.462;2024-03-22T08:33:11;4.60;;;4.30;;
31746;SDS011;18319;48.974;8.462;2024-03-22T08:35:37;4.15;;;3.85;;
31746;SDS011;18319;48.974;8.462;2024-03-22T08:38:05;4.85;;;4.47;;
31746;SDS011;18319;48.974;8.462;2024-03-22T08:40:36;4.43;;;4.03;;
31746;SDS011;18319;48.974;8.462;2024-03-22T08:43:03;6.90;;;3.88;;
31746;SDS011;18319;48.974;8.462;2024-03-22T08:45:29;6.70;;;4.10;;
31746;SDS011;18319;48.974;8.462;2024-03-22T08:47:56;5.80;;;4.07;;
31746;SDS011;18319;48.974;8.462;2024-03-22T08:50:22;4.35;;;3.95;;
31746;SDS011;18319;48.974;8.462;2024-03-22T08:52:49;5.57;;;4.07;;
31746;SDS011;18319;48.974;8.462;2024-03-22T08:55:15;5.82;;;4.28;;
31746;SDS011;18319;48.974;8.462;2024-03-22T08:57:43;6.82;;;4.05;;
31746;SDS011;18319;48.974;8.462;2024-03-22T09:00:09;4.43;;;4.13;;
31746;SDS011;18319;48.974;8.462;2024-03-22T09:02:37;6.75;;;4.18;;
31746;SDS011;18319;48.974;8.462;2024-03-22T09:05:03;4.32;;;3.22;;
31746;SDS011;18319;48.974;8.462;2024-03-22T09:07:31;6.45;;;4.13;;
31746;SDS011;18319;48.974;8.462;2024-03-22T09:09:56;4.65;;;3.30;;
31746;SDS011;18319;48.974;8.462;2024-03-22T09:12:23;4.72;;;3.95;;
31746;SDS011;18319;48.974;8.462;2024-03-22T09:14:50;5.57;;;3.15;;
31746;SDS011;18319;48.974;8.462;2024-03-22T09:17:17;10.15;;;3.67;;
31746;SDS011;18319;48.974;8.462;2024-03-22T09:19:43;6.78;;;3.17;;
31746;SDS011;18319;48.974;8.462;2024-03-22T09:22:10;4.03;;;3.72;;
31746;SDS011;18319;48.974;8.462;2024-03-22T09:24:36;4.95;;;3.53;;
31746;SDS011;18319;48.974;8.462;2024-03-22T09:27:03;6.05;;;3.40;;
31746;SDS011;18319;48.974;8.462;2024-03-22T09:29:33;4.50;;;3.80;;
31746;SDS011;18319;48.974;8.462;2024-03-22T09:32:02;3.80;;;3.50;;
31746;SDS011;18319;48.974;8.462;2024-03-22T09:34:28;3.92;;;3.63;;
31746;SDS011;18319;48.974;8.462;2024-03-22T09:36:56;4.45;;;3.50;;
31746;SDS011;18319;48.974;8.462;2024-03-22T09:39:22;5.40;;;3.65;;
31746;SDS011;18319;48.974;8.462;2024-03-22T09:41:50;5.78;;;3.17;;
31746;SDS011;18319;48.974;8.462;2024-03-22T09:44:18;4.60;;;3.35;;
31746;SDS011;18319;48.974;8.462;2024-03-22T09:46:46;5.93;;;3.05;;
31746;SDS011;18319;48.974;8.462;2024-03-22T09:49:13;3.35;;;2.85;;
31746;SDS011;18319;48.974;8.462;2024-03-22T09:51:42;3.30;;;3.08;;
31746;SDS011;18319;48.974;8.462;2024-03-22T09:54:08;2.97;;;2.78;;
31746;SDS011;18319;48.974;8.462;2024-03-22T09:56:36;4.63;;;3.20;;
31746;SDS011;18319;48.974;8.462;2024-03-22T09:59:04;5.15;;;3.25;;
31746;SDS011;18319;48.974;8.462;2024-03-22T10:01:32;4.03;;;3.08;;
31746;SDS011;18319;48.974;8.462;2024-03-22T10:03:59;5.95;;;3.25;;
31746;SDS011;18319;48.974;8.462;2024-03-22T10:06:28;4.05;;;3.45;;
31746;SDS011;18319;48.974;8.462;2024-03-22T10:08:54;5.47;;;3.50;;
31746;SDS011;18319;48.974;8.462;2024-03-22T10:11:25;3.65;;;3.22;;
31746;SDS011;18319;48.974;8.462;2024-03-22T10:13:51;4.30;;;2.95;;
31746;SDS011;18319;48.974;8.462;2024-03-22T10:16:20;3.80;;;3.28;;
31746;SDS011;18319;48.974;8.462;2024-03-22T10:18:45;5.53;;;3.80;;
31746;SDS011;18319;48.974;8.462;2024-03-22T10:21:16;6.05;;;4.03;;
31746;SDS011;18319;48.974;8.462;2024-03-22T10:23:44;3.60;;;3.30;;
31746;SDS011;18319;48.974;8.462;2024-03-22T10:26:13;3.55;;;3.25;;
31746;SDS011;18319;48.974;8.462;2024-03-22T10:28:43;6.57;;;3.47;;
31746;SDS011;18319;48.974;8.462;2024-03-22T10:31:11;5.20;;;3.95;;
31746;SDS011;18319;48.974;8.462;2024-03-22T10:33:37;5.72;;;3.97;;
31746;SDS011;18319;48.974;8.462;2024-03-22T10:36:06;5.53;;;3.78;;
31746;SDS011;18319;48.974;8.462;2024-03-22T10:38:32;4.10;;;3.70;;
31746;SDS011;18319;48.974;8.462;2024-03-22T10:41:03;4.45;;;4.05;;
31746;SDS011;18319;48.974;8.462;2024-03-22T10:43:30;4.88;;;3.58;;
31746;SDS011;18319;48.974;8.462;2024-03-22T10:45:59;5.93;;;3.58;;
31746;SDS011;18319;48.974;8.462;2024-03-22T10:48:26;5.10;;;3.80;;
31746;SDS011;18319;48.974;8.462;2024-03-22T10:50:55;4.50;;;3.45;;
31746;SDS011;18319;48.974;8.462;2024-03-22T10:53:25;4.00;;;2.67;;
31746;SDS011;18319;48.974;8.462;2024-03-22T10:55:52;3.72;;;2.83;;
31746;SDS011;18319;48.974;8.462;2024-03-22T10:58:21;4.05;;;2.70;;
31746;SDS011;18319;48.974;8.462;2024-03-22T11:00:51;3.20;;;2.90;;
31746;SDS011;18319;48.974;8.462;2024-03-22T11:03:19;4.65;;;2.88;;
31746;SDS011;18319;48.974;8.462;2024-03-22T11:05:46;5.40;;;3.03;;
31746;SDS011;18319;48.974;8.462;2024-03-22T11:08:12;5.65;;;2.92;;
31746;SDS011;18319;48.974;8.462;2024-03-22T11:10:39;5.57;;;3.17;;
31746;SDS011;18319;48.974;8.462;2024-03-22T11:13:05;4.15;;;2.78;;
31746;SDS011;18319;48.974;8.462;2024-03-22T11:15:35;9.77;;;4.72;;
31746;SDS011;18319;48.974;8.462;2024-03-22T11:18:00;4.00;;;2.22;;
31746;SDS011;18319;48.974;8.462;2024-03-22T11:20:27;3.72;;;2.40;;
31746;SDS011;18319;48.974;8.462;2024-03-22T11:22:54;3.28;;;1.92;;
31746;SDS011;18319;48.974;8.462;2024-03-22T11:25:22;2.95;;;2.08;;
31746;SDS011;18319;48.974;8.462;2024-03-22T11:27:48;5.72;;;2.15;;
31746;SDS011;18319;48.974;8.462;2024-03-22T11:30:15;2.75;;;2.40;;
31746;SDS011;18319;48.974;8.462;2024-03-22T11:32:43;3.00;;;2.38;;
31746;SDS011;18319;48.974;8.462;2024-03-22T11:35:10;2.92;;;2.00;;
31746;SDS011;18319;48.974;8.462;2024-03-22T11:37:38;2.30;;;2.10;;
31746;SDS011;18319;48.974;8.462;2024-03-22T11:40:05;3.03;;;2.30;;
31746;SDS011;18319;48.974;8.462;2024-03-22T11:42:33;3.03;;;2.83;;
31746;SDS011;18319;48.974;8.462;2024-03-22T11:45:01;2.70;;;2.50;;
31746;SDS011;18319;48.974;8.462;2024-03-22T11:47:27;3.35;;;2.00;;
31746;SDS011;18319;48.974;8.462;2024-03-22T11:49:55;4.03;;;2.08;;
31746;SDS011;18319;48.974;8.462;2024-03-22T11:52:23;2.60;;;2.40;;
31746;SDS011;18319;48.974;8.462;2024-03-22T11:54:51;2.20;;;1.85;;
31746;SDS011;18319;48.974;8.462;2024-03-22T11:57:17;4.50;;;2.03;;
31746;SDS011;18319;48.974;8.462;2024-03-22T11:59:44;3.67;;;2.50;;
31746;SDS011;18319;48.974;8.462;2024-03-22T12:02:10;3.17;;;2.35;;
31746;SDS011;18319;48.974;8.462;2024-03-22T12:04:40;3.33;;;2.33;;
31746;SDS011;18319;48.974;8.462;2024-03-22T12:07:10;4.78;;;2.75;;
31746;SDS011;18319;48.974;8.462;2024-03-22T12:09:37;2.75;;;2.00;;
31746;SDS011;18319;48.974;8.462;2024-03-22T12:12:03;3.28;;;1.90;;
31746;SDS011;18319;48.974;8.462;2024-03-22T12:14:31;3.22;;;2.38;;
31746;SDS011;18319;48.974;8.462;2024-03-22T12:16:57;2.10;;;1.90;;
31746;SDS011;18319;48.974;8.462;2024-03-22T12:19:24;2.83;;;2.13;;
31746;SDS011;18319;48.974;8.462;2024-03-22T12:21:49;2.47;;;2.28;;
31746;SDS011;18319;48.974;8.462;2024-03-22T12:24:18;2.45;;;2.00;;
31746;SDS011;18319;48.974;8.462;2024-03-22T12:26:44;3.13;;;2.70;;
31746;SDS011;18319;48.974;8.462;2024-03-22T12:29:12;5.85;;;2.10;;
31746;SDS011;18319;48.974;8.462;2024-03-22T12:31:38;2.53;;;1.90;;
31746;SDS011;18319;48.974;8.462;2024-03-22T12:34:05;3.25;;;2.50;;
31746;SDS011;18319;48.974;8.462;2024-03-22T12:36:30;2.55;;;2.10;;
31746;SDS011;18319;48.974;8.462;2024-03-22T12:38:57;3.22;;;2.20;;
31746;SDS011;18319;48.974;8.462;2024-03-22T12:41:25;2.88;;;1.80;;
31746;SDS011;18319;48.974;8.462;2024-03-22T12:43:54;2.78;;;2.40;;
31746;SDS011;18319;48.974;8.462;2024-03-22T12:46:20;3.72;;;2.63;;
31746;SDS011;18319;48.974;8.462;2024-03-22T12:48:46;4.10;;;2.50;;
31746;SDS011;18319;48.974;8.462;2024-03-22T12:51:12;5.30;;;1.95;;
31746;SDS011;18319;48.974;8.462;2024-03-22T12:53:40;2.22;;;2.03;;
31746;SDS011;18319;48.974;8.462;2024-03-22T12:56:06;2.60;;;2.17;;
31746;SDS011;18319;48.974;8.462;2024-03-22T12:58:34;2.38;;;1.77;;
31746;SDS011;18319;48.974;8.462;2024-03-22T13:01:00;2.35;;;2.15;;
31746;SDS011;18319;48.974;8.462;2024-03-22T13:03:27;3.78;;;2.40;;
31746;SDS011;18319;48.974;8.462;2024-03-22T13:05:53;1.85;;;1.75;;
31746;SDS011;18319;48.974;8.462;2024-03-22T13:08:20;2.05;;;1.63;;
31746;SDS011;18319;48.974;8.462;2024-03-22T13:10:45;4.88;;;1.67;;
31746;SDS011;18319;48.974;8.462;2024-03-22T13:13:13;3.20;;;1.45;;
31746;SDS011;18319;48.974;8.462;2024-03-22T13:15:42;2.55;;;1.55;;
31746;SDS011;18319;48.974;8.462;2024-03-22T13:18:10;2.97;;;2.10;;
31746;SDS011;18319;48.974;8.462;2024-03-22T13:20:36;5.15;;;2.20;;
31746;SDS011;18319;48.974;8.462;2024-03-22T13:23:03;1.95;;;1.85;;
31746;SDS011;18319;48.974;8.462;2024-03-22T13:25:29;5.18;;;2.00;;
31746;SDS011;18319;48.974;8.462;2024-03-22T13:27:56;1.60;;;1.50;;
31746;SDS011;18319;48.974;8.462;2024-03-22T13:30:21;2.75;;;1.50;;
31746;SDS011;18319;48.974;8.462;2024-03-22T13:32:50;3.58;;;1.92;;
31746;SDS011;18319;48.974;8.462;2024-03-22T13:35:16;3.80;;;1.70;;
31746;SDS011;18319;48.974;8.462;2024-03-22T13:37:43;3.90;;;1.80;;
31746;SDS011;18319;48.974;8.462;2024-03-22T13:40:09;5.65;;;1.98;;
31746;SDS011;18319;48.974;8.462;2024-03-22T13:42:36;1.98;;;1.88;;
31746;SDS011;18319;48.974;8.462;2024-03-22T13:45:02;1.80;;;1.70;;
31746;SDS011;18319;48.974;8.462;2024-03-22T13:47:30;3.67;;;1.88;;
31746;SDS011;18319;48.974;8.462;2024-03-22T13:49:57;2.63;;;1.42;;
31746;SDS011;18319;48.974;8.462;2024-03-22T13:52:24;3.30;;;2.35;;
31746;SDS011;18319;48.974;8.462;2024-03-22T13:54:51;2.30;;;1.50;;
31746;SDS011;18319;48.974;8.462;2024-03-22T13:57:17;3.92;;;1.58;;
31746;SDS011;18319;48.974;8.462;2024-03-22T13:59:43;2.75;;;1.63;;
31746;SDS011;18319;48.974;8.462;2024-03-22T14:02:11;3.35;;;1.98;;
31746;SDS011;18319;48.974;8.462;2024-03-22T14:04:37;1.42;;;1.33;;
31746;SDS011;18319;48.974;8.462;2024-03-22T14:07:05;1.50;;;1.40;;
31746;SDS011;18319;48.974;8.462;2024-03-22T14:09:31;2.63;;;1.30;;
31746;SDS011;18319;48.974;8.462;2024-03-22T14:11:58;3.90;;;1.98;;
31746;SDS011;18319;48.974;8.462;2024-03-22T14:14:24;2.67;;;1.60;;
31746;SDS011;18319;48.974;8.462;2024-03-22T14:16:51;2.65;;;2.10;;
31746;SDS011;18319;48.974;8.462;2024-03-22T14:19:17;2.83;;;1.63;;
31746;SDS011;18319;48.974;8.462;2024-03-22T14:21:44;2.45;;;2.15;;
31746;SDS011;18319;48.974;8.462;2024-03-22T14:24:12;2.88;;;2.05;;
31746;SDS011;18319;48.974;8.462;2024-03-22T14:26:39;2.35;;;1.48;;
31746;SDS011;18319;48.974;8.462;2024-03-22T14:29:07;2.72;;;1.92;;
31746;SDS011;18319;48.974;8.462;2024-03-22T14:31:35;2.22;;;2.03;;
31746;SDS011;18319;48.974;8.462;2024-03-22T14:34:00;2.60;;;2.00;;
31746;SDS011;18319;48.974;8.462;2024-03-22T14:36:27;2.67;;;1.90;;
31746;SDS011;18319;48.974;8.462;2024-03-22T14:38:53;1.85;;;1.73;;
31746;SDS011;18319;48.974;8.462;2024-03-22T14:41:20;2.25;;;2.05;;
31746;SDS011;18319;48.974;8.462;2024-03-22T14:43:47;3.40;;;2.38;;
31746;SDS011;18319;48.974;8.462;2024-03-22T14:46:13;3.10;;;2.15;;